Time;durP1;ratioP1;P1;durP2;ratioP2;P2;SDS_P1;SDS_P2;PMS_P1;PMS_P2;Temp;Humidity;BMP_temperature;BMP_pressure;BME280_temperature;BME280_humidity;BME280_pressure;Samples;Min_cycle;Max_cycle;Signal;HPM_P1;HPM_P2
2023/07/26 00:01:06;;;;;;;14.25;9.88;;;;;;;19.15;100.00;97464.53;5139213;28;20085;-63
2023/07/26 00:03:32;;;;;;;14.90;9.88;;;;;;;19.26;100.00;97470.38;5138513;27;20440;-63
2023/07/26 00:05:58;;;;;;;16.35;10.07;;;;;;;18.89;100.00;97486.25;5138498;28;20080;-63
2023/07/26 00:08:24;;;;;;;13.93;9.35;;;;;;;19.01;100.00;97469.47;5138739;27;20057;-64
2023/07/26 00:10:50;;;;;;;20.50;10.48;;;;;;;18.95;100.00;97478.88;5138457;28;20083;-63
2023/07/26 00:13:17;;;;;;;18.50;10.60;;;;;;;19.06;100.00;97476.41;5138704;28;20142;-62
2023/07/26 00:15:43;;;;;;;20.05;9.80;;;;;;;19.05;100.00;97469.31;5138490;27;20043;-65
2023/07/26 00:18:10;;;;;;;16.13;10.73;;;;;;;19.18;100.00;97477.47;5138806;27;20106;-63
2023/07/26 00:20:36;;;;;;;15.73;10.85;;;;;;;19.14;100.00;97471.31;5138418;28;20138;-64
2023/07/26 00:23:03;;;;;;;15.88;10.00;;;;;;;19.26;100.00;97470.38;5138643;28;20065;-63
2023/07/26 00:25:28;;;;;;;20.42;10.48;;;;;;;19.19;100.00;97474.25;5138298;28;20054;-64
2023/07/26 00:27:54;;;;;;;16.25;10.45;;;;;;;19.13;100.00;97476.09;5138685;28;20058;-65
2023/07/26 00:30:20;;;;;;;17.55;9.82;;;;;;;19.07;100.00;97460.53;5138155;28;20417;-67
2023/07/26 00:32:46;;;;;;;20.85;11.25;;;;;;;19.06;100.00;97456.97;5138350;28;20325;-66
2023/07/26 00:35:19;;;;;;;17.48;10.85;;;;;;;19.01;100.00;97454.81;5138116;28;20392;-65
2023/07/26 00:37:45;;;;;;;13.88;9.77;;;;;;;18.88;100.00;97452.19;5138143;27;20127;-62
2023/07/26 00:40:12;;;;;;;16.10;9.63;;;;;;;19.02;100.00;97440.44;5138311;28;20137;-64
2023/07/26 00:42:38;;;;;;;19.05;9.60;;;;;;;19.14;100.00;97435.97;5138077;28;20138;-65
2023/07/26 00:45:04;;;;;;;23.85;10.77;;;;;;;19.03;100.00;97442.00;5138340;27;20078;-66
2023/07/26 00:47:30;;;;;;;32.10;11.30;;;;;;;18.99;100.00;97444.19;5137934;27;20448;-63
2023/07/26 00:49:56;;;;;;;23.08;9.98;;;;;;;18.54;100.00;97428.22;5138292;28;20050;-62
2023/07/26 00:52:25;;;;;;;31.27;11.55;;;;;;;18.46;100.00;97394.47;5137774;28;20073;-62
2023/07/26 00:54:52;;;;;;;32.88;11.80;;;;;;;18.49;100.00;97376.91;5138321;28;20354;-65
2023/07/26 00:57:18;;;;;;;17.25;10.45;;;;;;;18.39;100.00;97367.00;5137708;28;20051;-64
2023/07/26 00:59:44;;;;;;;26.13;16.08;;;;;;;18.15;100.00;97349.41;5137662;27;20047;-63
2023/07/26 01:02:10;;;;;;;19.98;9.82;;;;;;;18.04;100.00;97347.84;5137571;27;20059;-64
2023/07/26 01:04:36;;;;;;;19.55;13.82;;;;;;;18.04;100.00;97345.06;5137891;28;20187;-65
2023/07/26 01:07:10;;;;;;;9.52;6.43;;;;;;;18.03;100.00;97338.00;5137863;27;20047;-65
2023/07/26 01:09:45;;;;;;;9.10;6.25;;;;;;;18.22;100.00;97341.56;5137809;28;20050;-61
2023/07/26 01:12:18;;;;;;;29.27;10.60;;;;;;;17.99;100.00;97348.44;5137765;28;20057;-64
2023/07/26 01:14:52;;;;;;;10.02;6.35;;;;;;;18.00;100.00;97355.53;5137580;28;20090;-64
2023/07/26 01:17:18;;;;;;;12.50;7.22;;;;;;;17.83;100.00;97343.97;5137944;28;20047;-65
2023/07/26 01:19:43;;;;;;;11.00;6.85;;;;;;;18.03;100.00;97340.00;5137524;28;20065;-65
2023/07/26 01:22:10;;;;;;;13.73;6.63;;;;;;;18.00;100.00;97349.25;5137920;28;20393;-63
2023/07/26 01:24:36;;;;;;;18.50;12.73;;;;;;;18.04;100.00;97356.16;5137689;28;20165;-65
2023/07/26 01:27:02;;;;;;;13.57;7.95;;;;;;;17.92;100.00;97353.50;5136965;27;20059;-64
2023/07/26 01:29:28;;;;;;;19.20;7.40;;;;;;;18.08;100.00;97358.78;5137413;27;20090;-65
2023/07/26 01:31:55;;;;;;;12.35;6.25;;;;;;;17.70;100.00;97357.13;5137406;28;20062;-64
2023/07/26 01:34:21;;;;;;;9.30;6.50;;;;;;;17.81;100.00;97337.31;5137672;28;20047;-63
2023/07/26 01:36:49;;;;;;;7.22;4.85;;;;;;;17.76;100.00;97330.38;5137303;27;20062;-65
2023/07/26 01:39:17;;;;;;;4.90;3.78;;;;;;;17.66;100.00;97339.88;5137557;28;20129;-62
2023/07/26 01:41:43;;;;;;;5.53;4.20;;;;;;;17.94;100.00;97365.69;5137130;28;20154;-63
2023/07/26 01:44:09;;;;;;;9.25;6.80;;;;;;;17.98;100.00;97391.25;5137629;28;20169;-64
2023/07/26 01:46:35;;;;;;;7.50;4.00;;;;;;;17.97;100.00;97416.69;5137016;27;20180;-63
2023/07/26 01:49:01;;;;;;;5.90;3.65;;;;;;;17.64;100.00;97433.75;5137558;27;20055;-63
2023/07/26 01:51:27;;;;;;;5.25;4.55;;;;;;;17.52;100.00;97440.91;5136915;28;20367;-62
2023/07/26 01:53:53;;;;;;;3.67;2.53;;;;;;;17.37;100.00;97435.16;5137203;28;20416;-62
2023/07/26 01:56:20;;;;;;;7.60;3.40;;;;;;;17.15;100.00;97409.47;5137118;28;20370;-62
2023/07/26 01:58:45;;;;;;;10.13;3.42;;;;;;;17.12;100.00;97386.22;5136857;28;20483;-65
2023/07/26 02:01:11;;;;;;;7.88;3.08;;;;;;;16.97;100.00;97352.00;5137240;27;20051;-65
2023/07/26 02:03:37;;;;;;;6.80;3.50;;;;;;;17.15;100.00;97346.53;5136960;28;20111;-65
2023/07/26 02:06:03;;;;;;;5.55;3.47;;;;;;;17.27;100.00;97344.94;5137149;27;20047;-65
2023/07/26 02:08:29;;;;;;;6.30;3.60;;;;;;;17.45;100.00;97347.00;5136878;27;20085;-63
2023/07/26 02:10:55;;;;;;;7.53;4.05;;;;;;;17.59;100.00;97343.69;5137246;28;20426;-63
2023/07/26 02:13:22;;;;;;;5.55;3.97;;;;;;;17.51;100.00;97358.28;5136666;28;20059;-64
2023/07/26 02:15:48;;;;;;;8.10;4.43;;;;;;;17.53;100.00;97362.16;5137193;28;20328;-63
2023/07/26 02:18:13;;;;;;;11.15;4.10;;;;;;;17.62;100.00;97367.69;5136687;28;20058;-64
2023/07/26 02:20:39;;;;;;;9.90;7.45;;;;;;;17.65;100.00;97363.25;5137115;27;20393;-64
2023/07/26 02:23:05;;;;;;;14.35;8.63;;;;;;;17.77;100.00;97353.31;5136578;27;20047;-66
2023/07/26 02:25:31;;;;;;;8.27;5.32;;;;;;;17.84;100.00;97358.59;5136806;27;20055;-66
2023/07/26 02:27:57;;;;;;;9.55;5.72;;;;;;;17.86;100.00;97354.13;5136867;27;20058;-65
2023/07/26 02:30:24;;;;;;;8.95;5.82;;;;;;;17.82;100.00;97353.47;5136698;27;20047;-64
2023/07/26 02:32:50;;;;;;;17.00;11.60;;;;;;;17.85;100.00;97346.25;5136821;28;20142;-63
2023/07/26 02:35:16;;;;;;;9.13;6.88;;;;;;;17.87;100.00;97344.56;5136628;28;20195;-64
2023/07/26 02:37:42;;;;;;;9.38;6.15;;;;;;;17.76;100.00;97341.47;5136792;27;20074;-65
2023/07/26 02:40:09;;;;;;;7.88;6.18;;;;;;;17.83;100.00;97337.66;5139409;28;20053;-66
2023/07/26 02:42:35;;;;;;;18.23;12.13;;;;;;;17.92;100.00;97348.72;5140285;28;20047;-64
2023/07/26 02:45:01;;;;;;;12.02;7.45;;;;;;;17.92;100.00;97336.88;5139904;28;20279;-63
2023/07/26 02:47:31;;;;;;;11.15;10.00;;;;;;;17.62;100.00;97334.44;5140244;28;20107;-63
2023/07/26 02:49:57;;;;;;;9.73;8.75;;;;;;;17.83;100.00;97324.56;5139737;27;20085;-65
2023/07/26 02:52:23;;;;;;;11.77;6.75;;;;;;;17.83;100.00;97327.31;5139670;28;20339;-66
2023/07/26 02:54:48;;;;;;;12.43;10.25;;;;;;;17.88;100.00;97331.47;5140031;28;20050;-65
2023/07/26 02:57:14;;;;;;;8.38;6.43;;;;;;;17.90;100.00;97339.34;5139630;28;20107;-63
2023/07/26 02:59:41;;;;;;;10.65;6.38;;;;;;;17.99;100.00;97347.66;5140033;28;20145;-64
2023/07/26 03:02:07;;;;;;;10.77;9.68;;;;;;;17.75;100.00;97356.50;5139793;28;20463;-64
2023/07/26 03:04:33;;;;;;;11.02;5.60;;;;;;;17.88;100.00;97362.75;5139835;28;20138;-63
2023/07/26 03:06:59;;;;;;;8.88;6.10;;;;;;;17.85;100.00;97379.53;5139415;27;20134;-64
2023/07/26 03:09:25;;;;;;;10.23;5.90;;;;;;;17.99;100.00;97395.56;5139956;28;20047;-64
2023/07/26 03:11:51;;;;;;;11.80;5.50;;;;;;;17.91;100.00;97399.88;5139325;28;20353;-64
2023/07/26 03:14:17;;;;;;;7.70;5.63;;;;;;;17.78;100.00;97399.97;5139822;28;20051;-63
2023/07/26 03:16:43;;;;;;;11.13;5.65;;;;;;;17.82;100.00;97402.59;5139365;28;20051;-64
2023/07/26 03:19:09;;;;;;;11.00;8.77;;;;;;;17.88;100.00;97426.50;5139808;27;20138;-64
2023/07/26 03:21:35;;;;;;;8.90;5.00;;;;;;;17.63;100.00;97427.44;5139583;28;20239;-65
2023/07/26 03:24:01;;;;;;;9.40;8.40;;;;;;;17.67;100.00;97427.31;5139421;28;20321;-64
2023/07/26 03:26:27;;;;;;;6.72;4.93;;;;;;;17.60;100.00;97425.59;5139522;28;20058;-66
2023/07/26 03:28:53;;;;;;;7.53;4.60;;;;;;;17.56;100.00;97433.28;5139356;28;20134;-66
2023/07/26 03:31:19;;;;;;;7.43;5.00;;;;;;;17.45;100.00;97437.66;5139361;28;20409;-65
2023/07/26 03:33:45;;;;;;;7.78;4.65;;;;;;;17.31;100.00;97428.66;5139034;28;20054;-65
2023/07/26 03:36:11;;;;;;;5.38;4.40;;;;;;;17.38;100.00;97422.84;5139405;27;20043;-65
2023/07/26 03:38:37;;;;;;;8.32;4.15;;;;;;;17.31;100.00;97434.19;5139083;28;20100;-64
2023/07/26 03:41:03;;;;;;;10.35;4.40;;;;;;;17.52;100.00;97445.69;5139407;28;20047;-65
2023/07/26 03:43:29;;;;;;;8.30;7.60;;;;;;;17.45;100.00;97455.03;5138872;28;20062;-64
2023/07/26 03:45:55;;;;;;;7.43;4.90;;;;;;;17.58;100.00;97460.50;5139367;28;20073;-63
2023/07/26 03:48:21;;;;;;;6.72;4.60;;;;;;;17.40;100.00;97466.72;5138780;28;20333;-63
2023/07/26 03:50:47;;;;;;;11.07;8.02;;;;;;;17.44;100.00;97464.59;5138935;27;20453;-64
2023/07/26 03:53:13;;;;;;;9.10;5.28;;;;;;;17.43;100.00;97474.13;5138946;28;20063;-65
2023/07/26 03:55:39;;;;;;;8.32;7.53;;;;;;;17.43;100.00;97490.75;5138665;28;20123;-65
2023/07/26 03:58:05;;;;;;;8.02;7.22;;;;;;;17.40;100.00;97494.41;5139006;27;20335;-65
2023/07/26 04:00:31;;;;;;;7.72;4.65;;;;;;;17.24;100.00;97489.84;5138596;28;20103;-66
2023/07/26 04:02:57;;;;;;;5.55;3.95;;;;;;;16.97;100.00;97482.09;5138875;27;20108;-65
2023/07/26 04:05:23;;;;;;;5.07;4.53;;;;;;;16.88;100.00;97463.41;5138437;28;20134;-65
2023/07/26 04:07:49;;;;;;;6.95;6.38;;;;;;;16.95;100.00;97459.63;5139044;27;20079;-64
2023/07/26 04:10:15;;;;;;;5.38;3.90;;;;;;;17.12;100.00;97462.97;5138548;28;20128;-64
2023/07/26 04:12:41;;;;;;;8.52;3.83;;;;;;;17.27;100.00;97471.56;5138804;28;20500;-63
2023/07/26 04:15:08;;;;;;;4.35;3.83;;;;;;;17.09;100.00;97488.78;5138383;28;20389;-64
2023/07/26 04:17:34;;;;;;;5.25;3.33;;;;;;;17.33;100.00;97489.16;5138797;27;20147;-65
2023/07/26 04:20:00;;;;;;;7.25;3.60;;;;;;;17.20;100.00;97502.28;5138272;28;20066;-64
2023/07/26 04:22:26;;;;;;;8.48;3.88;;;;;;;17.21;100.00;97495.50;5138429;27;20192;-64
2023/07/26 04:24:52;;;;;;;4.97;3.10;;;;;;;17.32;100.00;97501.44;5138277;28;20086;-65
2023/07/26 04:27:18;;;;;;;5.07;3.50;;;;;;;17.23;100.00;97521.53;5138180;28;20085;-66
2023/07/26 04:29:44;;;;;;;6.72;3.55;;;;;;;17.41;100.00;97518.88;5138573;28;20053;-66
2023/07/26 04:32:10;;;;;;;5.70;5.10;;;;;;;17.23;100.00;97538.16;5138275;28;20055;-65
2023/07/26 04:34:36;;;;;;;4.68;3.55;;;;;;;17.40;100.00;97547.06;5138357;28;20195;-66
2023/07/26 04:37:02;;;;;;;5.60;4.80;;;;;;;17.55;100.00;97558.38;5138033;27;20047;-65
2023/07/26 04:39:28;;;;;;;6.53;5.18;;;;;;;17.39;100.00;97570.41;5138197;28;20051;-63
2023/07/26 04:41:54;;;;;;;8.73;3.75;;;;;;;17.44;100.00;97564.31;5137985;28;20373;-63
2023/07/26 04:44:20;;;;;;;5.18;3.28;;;;;;;17.18;100.00;97555.31;5138345;28;20165;-64
2023/07/26 04:46:47;;;;;;;3.88;3.47;;;;;;;17.40;100.00;97542.28;5137940;27;20086;-64
2023/07/26 04:49:13;;;;;;;7.20;5.53;;;;;;;17.43;100.00;97540.63;5138320;28;20062;-62
2023/07/26 04:51:39;;;;;;;3.97;3.28;;;;;;;17.52;100.00;97531.59;5138095;27;20055;-63
2023/07/26 04:54:05;;;;;;;6.78;3.20;;;;;;;17.52;100.00;97540.66;5138001;28;20138;-64
2023/07/26 04:56:31;;;;;;;5.63;3.25;;;;;;;17.64;100.00;97556.47;5137972;28;20123;-65
2023/07/26 04:58:57;;;;;;;3.42;3.13;;;;;;;17.79;100.00;97575.34;5137628;28;20146;-64
2023/07/26 05:01:23;;;;;;;8.85;2.75;;;;;;;17.74;100.00;97581.47;5137044;27;20055;-65
2023/07/26 05:03:50;;;;;;;5.50;3.05;;;;;;;17.75;100.00;97602.41;5137529;28;20127;-64
2023/07/26 05:06:16;;;;;;;4.43;3.22;;;;;;;17.75;100.00;97605.19;5137695;27;20138;-66
2023/07/26 05:08:42;;;;;;;5.80;4.35;;;;;;;17.80;100.00;97596.31;5137405;28;20103;-66
2023/07/26 05:11:08;;;;;;;5.72;3.33;;;;;;;17.50;100.00;97611.63;5137870;28;20051;-64
2023/07/26 05:13:34;;;;;;;4.35;3.95;;;;;;;17.78;100.00;97610.63;5137499;28;20062;-65
2023/07/26 05:16:00;;;;;;;3.53;3.22;;;;;;;17.59;100.00;97631.06;5137743;27;20324;-66
2023/07/26 05:18:25;;;;;;;8.68;2.83;;;;;;;17.80;100.00;97649.75;5137239;27;20051;-69
2023/07/26 05:20:53;;;;;;;3.28;2.92;;;;;;;17.70;100.00;97673.06;5137380;28;20043;-66
2023/07/26 05:23:19;;;;;;;4.32;2.85;;;;;;;17.82;100.00;97693.66;5137115;28;20047;-66
2023/07/26 05:25:45;;;;;;;4.18;2.80;;;;;;;17.57;100.00;97700.03;5137409;28;20317;-63
2023/07/26 05:28:11;;;;;;;5.70;3.50;;;;;;;17.88;100.00;97714.03;5137424;28;20366;-66
2023/07/26 05:30:38;;;;;;;7.00;2.95;;;;;;;17.87;100.00;97732.66;5137236;27;20066;-66
2023/07/26 05:33:04;;;;;;;3.80;3.50;;;;;;;17.85;100.00;97729.56;5137230;28;20062;-65
2023/07/26 05:35:30;;;;;;;3.08;2.78;;;;;;;17.93;100.00;97738.44;5136940;27;20055;-64
2023/07/26 05:37:57;;;;;;;3.00;2.70;;;;;;;18.01;100.00;97748.03;5137168;27;20088;-66
2023/07/26 05:40:23;;;;;;;3.67;2.67;;;;;;;17.96;100.00;97753.38;5136820;27;20062;-64
2023/07/26 05:42:50;;;;;;;3.22;2.78;;;;;;;18.06;100.00;97746.69;5137309;27;20085;-65
2023/07/26 05:45:16;;;;;;;5.55;2.75;;;;;;;17.95;100.00;97758.16;5136968;28;20381;-65
2023/07/26 05:47:43;;;;;;;5.63;3.70;;;;;;;18.05;100.00;97764.53;5137313;28;20139;-66
2023/07/26 05:50:10;;;;;;;2.50;2.30;;;;;;;17.74;100.00;97773.47;5137033;28;20055;-65
2023/07/26 05:52:37;;;;;;;2.70;2.47;;;;;;;17.97;100.00;97763.25;5136826;28;20306;-62
2023/07/26 05:55:04;;;;;;;6.15;3.80;;;;;;;17.93;100.00;97752.28;5136758;28;20378;-64
2023/07/26 05:57:30;;;;;;;4.00;3.70;;;;;;;18.03;100.00;97753.91;5136749;28;20107;-60
2023/07/26 05:59:56;;;;;;;3.80;2.50;;;;;;;18.05;100.00;97773.63;5136603;28;20053;-64
2023/07/26 06:02:22;;;;;;;5.63;2.80;;;;;;;18.10;100.00;97761.22;5136627;28;20047;-62
2023/07/26 06:04:48;;;;;;;5.68;4.10;;;;;;;18.23;100.00;97784.13;5136984;28;20308;-62
2023/07/26 06:07:15;;;;;;;8.45;2.95;;;;;;;18.30;100.00;97788.66;5136754;27;20115;-63
2023/07/26 06:09:42;;;;;;;3.70;3.30;;;;;;;18.54;100.00;97802.84;5137019;27;20047;-65
2023/07/26 06:12:08;;;;;;;4.13;3.55;;;;;;;18.56;100.00;97823.38;5136530;27;20431;-64
2023/07/26 06:14:34;;;;;;;3.05;2.60;;;;;;;19.00;100.00;97828.94;5140357;27;20055;-63
2023/07/26 06:17:01;;;;;;;5.88;3.50;;;;;;;18.89;100.00;97856.31;5140028;28;20074;-61
2023/07/26 06:19:27;;;;;;;2.47;2.28;;;;;;;18.91;100.00;97870.53;5140324;28;20134;-64
2023/07/26 06:21:55;;;;;;;3.08;2.60;;;;;;;18.65;100.00;97899.63;5140324;27;20298;-63
2023/07/26 06:24:21;;;;;;;3.22;2.30;;;;;;;19.04;100.00;97907.34;5139768;28;20435;-62
2023/07/26 06:26:47;;;;;;;3.42;3.13;;;;;;;19.41;100.00;97915.91;5140021;28;20134;-63
2023/07/26 06:29:13;;;;;;;5.25;2.47;;;;;;;18.97;100.00;97912.41;5139562;28;20089;-59
2023/07/26 06:31:39;;;;;;;2.58;2.38;;;;;;;19.16;100.00;97914.09;5139459;28;20061;-61
2023/07/26 06:34:05;;;;;;;3.58;2.40;;;;;;;19.40;100.00;97928.28;5139602;28;20051;-60
2023/07/26 06:36:31;;;;;;;2.40;2.20;;;;;;;19.45;100.00;97924.13;5139996;27;20361;-68
2023/07/26 06:38:57;;;;;;;3.97;2.50;;;;;;;19.87;100.00;97943.22;5139778;28;20051;-65
2023/07/26 06:41:23;;;;;;;2.63;2.38;;;;;;;20.06;100.00;97953.19;5139951;28;20082;-69
2023/07/26 06:43:49;;;;;;;2.92;2.67;;;;;;;19.77;100.00;97938.84;5139484;28;20078;-64
2023/07/26 06:46:16;;;;;;;3.35;2.47;;;;;;;19.69;100.00;97950.25;5139976;27;20049;-63
2023/07/26 06:48:42;;;;;;;2.83;2.08;;;;;;;19.90;100.00;97954.19;5140182;27;20203;-65
2023/07/26 06:51:08;;;;;;;2.33;2.10;;;;;;;19.57;100.00;97958.63;5139831;28;20061;-63
2023/07/26 06:53:34;;;;;;;4.20;2.58;;;;;;;19.67;100.00;97968.59;5139894;27;20329;-60
2023/07/26 06:56:00;;;;;;;2.75;2.33;;;;;;;19.48;100.00;97960.13;5139464;28;20376;-66
2023/07/26 06:58:26;;;;;;;4.18;2.63;;;;;;;19.52;100.00;97957.19;5139786;28;20055;-63
2023/07/26 07:00:52;;;;;;;2.75;2.45;;;;;;;19.34;100.00;97954.31;5139587;28;20147;-62
2023/07/26 07:03:19;;;;;;;4.07;3.08;;;;;;;19.61;100.00;97950.94;5139467;28;20059;-65
2023/07/26 07:05:45;;;;;;;5.85;2.58;;;;;;;19.36;100.00;97954.63;5139631;27;20107;-66
2023/07/26 07:08:12;;;;;;;4.85;2.47;;;;;;;19.84;100.00;97966.38;5140142;27;20062;-64
2023/07/26 07:10:38;;;;;;;3.42;3.08;;;;;;;19.66;100.00;97972.59;5139708;28;20073;-64
2023/07/26 07:13:04;;;;;;;3.72;2.58;;;;;;;19.88;100.00;97972.56;5139867;28;20074;-65
2023/07/26 07:15:30;;;;;;;4.53;2.60;;;;;;;19.94;100.00;97973.53;5139263;27;20062;-62
2023/07/26 07:17:56;;;;;;;4.93;3.17;;;;;;;19.82;100.00;97979.94;5139208;27;20134;-63
2023/07/26 07:20:23;;;;;;;4.55;2.95;;;;;;;19.85;100.00;97990.16;5139376;27;20055;-64
2023/07/26 07:22:52;;;;;;;3.97;2.70;;;;;;;19.83;100.00;97982.28;5139085;28;20149;-61
2023/07/26 07:25:18;;;;;;;2.92;2.67;;;;;;;19.82;100.00;97964.03;5138475;27;20142;-63
2023/07/26 07:27:44;;;;;;;8.95;3.30;;;;;;;20.12;100.00;97989.50;5138909;28;20062;-68
2023/07/26 07:30:10;;;;;;;4.60;3.58;;;;;;;20.52;100.00;97988.72;5138758;28;20078;-67
2023/07/26 07:32:37;;;;;;;6.80;3.92;;;;;;;20.65;100.00;97962.28;5139134;27;20061;-62
2023/07/26 07:35:05;;;;;;;4.15;2.80;;;;;;;20.75;100.00;97932.44;5139263;27;20339;-64
2023/07/26 07:37:31;;;;;;;6.55;4.07;;;;;;;20.72;100.00;97877.69;5138925;27;20055;-61
2023/07/26 07:39:57;;;;;;;3.70;2.70;;;;;;;21.14;100.00;97762.78;5139109;28;20138;-64
2023/07/26 07:42:23;;;;;;;3.30;2.72;;;;;;;21.46;100.00;97643.38;5138547;27;20439;-65
2023/07/26 07:44:49;;;;;;;6.05;2.53;;;;;;;21.42;100.00;97526.47;5139063;28;20317;-65
2023/07/26 07:47:16;;;;;;;3.00;2.70;;;;;;;21.75;100.00;97565.38;5138888;28;20119;-64
2023/07/26 07:49:42;;;;;;;9.35;3.20;;;;;;;21.73;100.00;97484.22;5138762;28;20090;-64
2023/07/26 07:52:08;;;;;;;7.90;3.17;;;;;;;21.79;100.00;97513.00;5138803;28;20061;-62
2023/07/26 07:54:34;;;;;;;3.50;3.17;;;;;;;21.98;100.00;97452.16;5138581;28;20198;-62
2023/07/26 07:57:00;;;;;;;3.33;2.63;;;;;;;21.99;100.00;97308.63;5138709;28;20146;-62
2023/07/26 07:59:26;;;;;;;5.57;2.70;;;;;;;22.20;100.00;97270.34;5138593;27;20071;-63
2023/07/26 08:01:52;;;;;;;2.80;2.58;;;;;;;22.26;100.00;97207.00;5138652;28;20053;-64
2023/07/26 08:04:18;;;;;;;3.95;2.13;;;;;;;22.14;100.00;97182.22;5138415;28;20051;-64
2023/07/26 08:06:44;;;;;;;3.30;2.67;;;;;;;21.53;100.00;97052.75;5138789;27;20054;-64
2023/07/26 08:09:10;;;;;;;4.05;3.03;;;;;;;21.69;100.00;97201.19;5138273;28;20058;-63
2023/07/26 08:11:36;;;;;;;3.00;2.55;;;;;;;22.00;100.00;97204.13;5138614;28;20130;-62
2023/07/26 08:14:03;;;;;;;3.50;2.80;;;;;;;22.17;100.00;97150.56;5138226;28;20305;-64
2023/07/26 08:16:29;;;;;;;3.92;3.40;;;;;;;22.04;100.00;97162.84;5137966;27;20150;-63
2023/07/26 08:18:55;;;;;;;4.72;2.75;;;;;;;22.40;100.00;96978.47;5138234;27;20051;-63
2023/07/26 08:21:21;;;;;;;3.10;2.35;;;;;;;23.44;100.00;96908.78;5138016;28;20107;-62
2023/07/26 08:23:46;;;;;;;3.05;2.47;;;;;;;24.50;100.00;96629.97;5138383;27;20097;-60
2023/07/26 08:26:12;;;;;;;2.40;2.20;;;;;;;24.60;100.00;96633.22;5138158;28;20051;-61
2023/07/26 08:28:39;;;;;;;3.55;2.95;;;;;;;25.52;100.00;96731.53;5138142;28;20476;-62
2023/07/26 08:31:05;;;;;;;5.65;2.25;;;;;;;26.21;100.00;96853.84;5137984;28;20368;-61
2023/07/26 08:33:31;;;;;;;2.85;2.10;;;;;;;26.51;100.00;96895.19;5138303;28;20087;-61
2023/07/26 08:35:57;;;;;;;3.13;2.83;;;;;;;25.78;100.00;96921.09;5137010;27;20051;-62
2023/07/26 08:38:23;;;;;;;2.63;2.40;;;;;;;25.64;100.00;96880.91;5137990;27;20141;-63
2023/07/26 08:40:50;;;;;;;3.25;2.50;;;;;;;25.46;100.00;96912.38;5137907;28;20051;-64
2023/07/26 08:43:18;;;;;;;3.92;2.58;;;;;;;24.48;100.00;96749.38;5138112;27;20479;-63
2023/07/26 08:45:45;;;;;;;3.33;2.70;;;;;;;23.21;100.00;96712.34;5137622;27;20078;-63
2023/07/26 08:48:12;;;;;;;2.08;1.88;;;;;;;23.18;100.00;96673.47;5137793;28;20055;-62
2023/07/26 08:50:39;;;;;;;3.20;2.30;;;;;;;23.82;100.00;96688.31;5137787;28;20147;-62
2023/07/26 08:53:06;;;;;;;3.80;2.35;;;;;;;23.91;100.00;96674.06;5137532;28;20101;-64
2023/07/26 08:55:32;;;;;;;4.03;1.85;;;;;;;24.07;100.00;96694.09;5137551;28;20188;-62
2023/07/26 08:57:59;;;;;;;4.75;2.38;;;;;;;24.21;100.00;96734.97;5137408;28;20327;-64
2023/07/26 09:00:26;;;;;;;3.53;3.25;;;;;;;24.68;100.00;96801.47;5137860;27;20054;-63
2023/07/26 09:02:55;;;;;;;3.38;3.08;;;;;;;24.77;100.00;96827.16;5137427;28;20051;-64
2023/07/26 09:05:21;;;;;;;4.38;3.30;;;;;;;24.74;100.00;96856.22;5137790;28;20435;-60
2023/07/26 09:07:51;;;;;;;3.78;2.65;;;;;;;25.07;100.00;96908.53;5137423;27;20043;-61
2023/07/26 09:10:22;;;;;;;4.05;2.80;;;;;;;25.93;100.00;97024.63;5137939;27;20432;-62
2023/07/26 09:12:50;;;;;;;4.97;2.55;;;;;;;25.83;100.00;97043.81;5137721;28;20143;-64
2023/07/26 09:15:18;;;;;;;5.18;2.92;;;;;;;26.36;100.00;97064.13;5137881;28;20050;-63
2023/07/26 09:17:44;;;;;;;3.95;3.65;;;;;;;26.05;100.00;97057.69;5137793;28;20051;-61
2023/07/26 09:20:25;;;;;;;3.97;3.60;;;;;;;25.97;100.00;97062.34;5137282;28;20058;-61
2023/07/26 09:22:59;;;;;;;4.97;3.53;;;;;;;25.95;100.00;97055.72;5137497;28;20142;-61
2023/07/26 09:25:37;;;;;;;4.72;3.45;;;;;;;25.73;100.00;97026.50;5137340;27;20137;-62
2023/07/26 09:28:04;;;;;;;4.00;3.55;;;;;;;25.01;100.00;97019.16;5137668;28;20390;-60
2023/07/26 09:30:33;;;;;;;4.07;3.28;;;;;;;24.30;100.00;96958.69;5136986;27;20421;-63
2023/07/26 09:33:01;;;;;;;4.32;3.92;;;;;;;24.11;100.00;96789.72;5137358;28;20145;-64
2023/07/26 09:35:30;;;;;;;4.30;3.90;;;;;;;23.58;100.00;96735.66;5137610;27;20047;-63
2023/07/26 09:37:57;;;;;;;6.72;4.20;;;;;;;23.49;100.00;96726.28;5137108;27;20336;-62
2023/07/26 09:40:33;;;;;;;5.10;3.63;;;;;;;22.59;100.00;96705.19;5137375;28;20150;-60
2023/07/26 09:42:59;;;;;;;5.03;3.70;;;;;;;22.25;100.00;96717.03;5136779;28;20429;-61
2023/07/26 09:45:26;;;;;;;4.22;3.38;;;;;;;22.39;100.00;96734.84;5137334;28;20043;-64
2023/07/26 09:47:52;;;;;;;6.50;3.08;;;;;;;22.10;100.00;96713.69;5137921;27;20043;-61
2023/07/26 09:50:25;;;;;;;8.02;3.10;;;;;;;22.21;100.00;96727.69;5140602;27;20130;-65
2023/07/26 09:52:53;;;;;;;3.80;3.50;;;;;;;22.88;100.00;96720.69;5140480;27;20424;-65
2023/07/26 09:55:22;;;;;;;6.30;4.63;;;;;;;23.52;100.00;96707.72;5140998;28;20046;-63
2023/07/26 09:57:48;;;;;;;9.30;3.70;;;;;;;23.28;100.00;96708.25;5140584;27;20147;-64
2023/07/26 10:00:15;;;;;;;5.85;3.22;;;;;;;23.53;100.00;96737.22;5140556;28;20107;-64
2023/07/26 10:02:45;;;;;;;3.33;3.00;;;;;;;23.58;100.00;96747.63;5140495;28;20058;-64
2023/07/26 10:05:14;;;;;;;4.70;3.53;;;;;;;23.74;100.00;96737.69;5140234;28;20047;-63
2023/07/26 10:07:41;;;;;;;3.70;3.03;;;;;;;24.16;100.00;96820.50;5140439;27;20051;-61
2023/07/26 10:10:09;;;;;;;4.22;3.83;;;;;;;24.74;100.00;96858.25;5140158;28;20078;-62
2023/07/26 10:12:38;;;;;;;2.90;2.70;;;;;;;25.45;100.00;96955.75;5140555;28;20134;-64
2023/07/26 10:15:06;;;;;;;3.83;2.88;;;;;;;25.84;100.00;97050.94;5140094;28;20058;-64
2023/07/26 10:17:33;;;;;;;3.85;3.53;;;;;;;25.75;100.00;97090.50;5140480;27;20089;-62
2023/07/26 10:19:59;;;;;;;3.38;3.08;;;;;;;25.77;100.00;97130.06;5139954;28;20070;-61
2023/07/26 10:22:27;;;;;;;4.70;3.25;;;;;;;25.59;100.00;97092.09;5140059;28;20043;-62
2023/07/26 10:24:53;;;;;;;4.80;3.45;;;;;;;25.55;100.00;97075.53;5140197;28;20349;-63
2023/07/26 10:27:21;;;;;;;4.18;3.50;;;;;;;25.70;100.00;97066.06;5139545;28;20203;-64
2023/07/26 10:29:48;;;;;;;3.70;3.35;;;;;;;25.35;100.00;97103.94;5140199;28;20128;-60
2023/07/26 10:32:16;;;;;;;5.03;3.50;;;;;;;25.01;100.00;97148.09;5139870;28;20058;-64
2023/07/26 10:34:42;;;;;;;4.70;3.70;;;;;;;25.39;100.00;97056.78;5140182;27;20051;-64
2023/07/26 10:37:14;;;;;;;4.15;3.28;;;;;;;25.00;100.00;97105.28;5139856;27;20047;-61
2023/07/26 10:39:40;;;;;;;3.58;3.10;;;;;;;24.79;100.00;97264.53;5140075;28;20135;-59
2023/07/26 10:42:22;;;;;;;4.32;3.60;;;;;;;24.68;100.00;97113.22;5139642;28;20051;-60
2023/07/26 10:44:47;;;;;;;4.45;3.38;;;;;;;24.64;100.00;97011.84;5139768;27;20059;-61
2023/07/26 10:47:14;;;;;;;5.47;3.70;;;;;;;24.40;100.00;97015.97;5139399;28;20088;-61
2023/07/26 10:49:45;;;;;;;3.38;3.03;;;;;;;24.73;100.00;97013.63;5139653;28;20051;-65
2023/07/26 10:52:11;;;;;;;3.42;2.75;;;;;;;25.09;100.00;97029.31;5139437;28;20147;-63
2023/07/26 10:54:41;;;;;;;6.85;3.40;;;;;;;25.08;100.00;97075.44;5139548;28;20046;-60
2023/07/26 10:57:15;;;;;;;5.65;4.20;;;;;;;25.55;100.00;97161.75;5139733;27;20391;-60
2023/07/26 10:59:59;;;;;;;6.10;3.75;;;;;;;25.30;100.00;97144.00;5138045;27;20447;-60
2023/07/26 11:02:44;;;;;;;6.72;3.65;;;;;;;24.94;100.00;97159.81;5139728;28;20103;-65
2023/07/26 11:05:12;;;;;;;4.78;3.92;;;;;;;24.75;100.00;97132.31;5139152;28;20385;-61
2023/07/26 11:08:03;;;;;;;5.82;3.70;;;;;;;24.91;100.00;97130.00;5139169;27;20181;-61
2023/07/26 11:10:31;;;;;;;5.95;3.53;;;;;;;24.53;100.00;97183.50;5119498;28;20061;-60
2023/07/26 11:13:08;;;;;;;4.97;3.60;;;;;;;24.32;100.00;97171.72;5139157;28;20062;-56
2023/07/26 11:15:37;;;;;;;4.32;2.85;;;;;;;23.97;100.00;97093.03;5139547;28;20103;-61
2023/07/26 11:18:03;;;;;;;7.97;3.17;;;;;;;24.07;100.00;97161.50;5138867;28;20431;-60
2023/07/26 11:20:29;;;;;;;5.10;3.10;;;;;;;24.29;100.00;97144.75;5139231;28;20138;-62